| Date | Time | Temp. (oF) | Dew Point (oF) | Rel. Hum. (%) | Press. (in.) | Wind Dir. | Wind Speed (mph) | Hourly Rainfall (in.) |
|
|---|---|---|---|---|---|---|---|---|---|
| 1 | 07/28 | 00:00 | 76 | 73 | 92 | 29.98 | SSE | 0 | 0.00 |
| 2 | 07/27 | 23:00 | 77 | 73 | 90 | 29.97 | SSE | 3 | 0.00 |
| 3 | 07/27 | 22:00 | 79 | 74 | 87 | 29.96 | SE | 2 | 0.00 |
| 4 | 07/27 | 21:00 | 80 | 74 | 83 | 29.95 | E | 0 | 0.00 |
| 5 | 07/27 | 20:00 | 81 | 74 | 81 | 29.94 | ESE | 2 | 0.00 |
| 6 | 07/27 | 19:00 | 82 | 74 | 79 | 29.93 | ESE | 4 | 0.00 |
| 7 | 07/27 | 18:00 | 82 | 74 | 77 | 29.94 | NE | 4 | 0.00 |
| 8 | 07/27 | 17:00 | 82 | 73 | 76 | 29.94 | SSE | 2 | 0.00 |
| 9 | 07/27 | 16:00 | 82 | 74 | 77 | 29.96 | SE | 3 | 0.00 |
| 10 | 07/27 | 15:00 | 79 | 72 | 81 | 29.98 | ENE | 2 | 0.00 |
| 11 | 07/27 | 14:00 | 78 | 72 | 82 | 30.00 | SSW | 4 | 0.00 |
| 12 | 07/27 | 13:00 | 76 | 71 | 86 | 30.02 | SSW | 4 | 0.00 |
| 13 | 07/27 | 12:00 | 75 | 70 | 87 | 30.03 | SSW | 4 | 0.00 |
| 14 | 07/27 | 11:00 | 73 | 70 | 91 | 30.01 | S | 4 | 0.00 |
| 15 | 07/27 | 10:00 | 70 | 68 | 96 | 30.01 | SSE | 2 | 0.00 |
| 16 | 07/27 | 09:00 | 68 | 67 | 97 | 30.03 | S | 2 | 0.00 |
| 17 | 07/27 | 08:00 | 67 | 66 | 98 | 30.01 | SE | 2 | 0.00 |
| 18 | 07/27 | 07:00 | 67 | 65 | 96 | 30.02 | E | 3 | 0.00 |
| 19 | 07/27 | 06:00 | 67 | 65 | 95 | 30.03 | SE | 1 | 0.00 |
| 20 | 07/27 | 05:00 | 67 | 65 | 95 | 30.01 | E | 0 | 0.00 |
| 21 | 07/27 | 04:00 | 67 | 64 | 92 | 30.03 | SSE | 5 | 0.00 |
| 22 | 07/27 | 03:00 | 67 | 63 | 88 | 30.05 | S | 6 | 0.00 |
| 23 | 07/27 | 02:00 | 68 | 62 | 84 | 30.06 | SSE | 4 | 0.00 |
| 24 | 07/27 | 01:00 | 68 | 62 | 83 | 30.07 | SE | 2 | 0.00 |